sensor_id;sensor_type;location;lat;lon;timestamp;P1;durP1;ratioP1;P2;durP2;ratioP2
3006;SDS011;1513;47.650;10.720;2022-11-15T00:02:27;1.83;;;1.30;;
3006;SDS011;1513;47.650;10.720;2022-11-15T00:05:12;1.30;;;1.00;;
3006;SDS011;1513;47.650;10.720;2022-11-15T00:07:57;1.70;;;1.60;;
3006;SDS011;1513;47.650;10.720;2022-11-15T00:10:42;2.37;;;2.17;;
3006;SDS011;1513;47.650;10.720;2022-11-15T00:13:38;3.90;;;2.80;;
3006;SDS011;1513;47.650;10.720;2022-11-15T00:16:23;2.80;;;2.50;;
3006;SDS011;1513;47.650;10.720;2022-11-15T00:19:08;2.90;;;2.60;;
3006;SDS011;1513;47.650;10.720;2022-11-15T00:21:52;2.33;;;2.10;;
3006;SDS011;1513;47.650;10.720;2022-11-15T00:24:37;3.83;;;2.17;;
3006;SDS011;1513;47.650;10.720;2022-11-15T00:27:22;1.90;;;1.80;;
3006;SDS011;1513;47.650;10.720;2022-11-15T00:30:07;2.20;;;1.63;;
3006;SDS011;1513;47.650;10.720;2022-11-15T00:32:53;1.53;;;1.43;;
3006;SDS011;1513;47.650;10.720;2022-11-15T00:35:38;1.50;;;1.40;;
3006;SDS011;1513;47.650;10.720;2022-11-15T00:38:23;2.20;;;1.60;;
3006;SDS011;1513;47.650;10.720;2022-11-15T00:41:07;2.60;;;2.33;;
3006;SDS011;1513;47.650;10.720;2022-11-15T00:43:52;3.33;;;2.40;;
3006;SDS011;1513;47.650;10.720;2022-11-15T00:46:37;3.80;;;2.47;;
3006;SDS011;1513;47.650;10.720;2022-11-15T00:49:22;4.67;;;2.60;;
3006;SDS011;1513;47.650;10.720;2022-11-15T00:52:07;2.70;;;2.50;;
3006;SDS011;1513;47.650;10.720;2022-11-15T00:54:52;3.27;;;2.50;;
3006;SDS011;1513;47.650;10.720;2022-11-15T00:57:37;2.50;;;2.30;;
3006;SDS011;1513;47.650;10.720;2022-11-15T01:00:22;4.90;;;2.90;;
3006;SDS011;1513;47.650;10.720;2022-11-15T01:03:07;3.47;;;2.80;;
3006;SDS011;1513;47.650;10.720;2022-11-15T01:05:51;2.93;;;2.63;;
3006;SDS011;1513;47.650;10.720;2022-11-15T01:08:37;4.80;;;3.33;;
3006;SDS011;1513;47.650;10.720;2022-11-15T01:11:23;3.57;;;2.53;;
3006;SDS011;1513;47.650;10.720;2022-11-15T01:14:08;5.10;;;3.10;;
3006;SDS011;1513;47.650;10.720;2022-11-15T01:16:53;4.23;;;3.43;;
3006;SDS011;1513;47.650;10.720;2022-11-15T01:19:38;5.27;;;3.37;;
3006;SDS011;1513;47.650;10.720;2022-11-15T01:22:22;4.70;;;3.00;;
3006;SDS011;1513;47.650;10.720;2022-11-15T01:25:07;4.67;;;3.13;;
3006;SDS011;1513;47.650;10.720;2022-11-15T01:27:52;4.93;;;3.50;;
3006;SDS011;1513;47.650;10.720;2022-11-15T01:30:37;5.33;;;3.60;;
3006;SDS011;1513;47.650;10.720;2022-11-15T01:33:22;4.63;;;3.43;;
3006;SDS011;1513;47.650;10.720;2022-11-15T01:36:08;3.30;;;3.00;;
3006;SDS011;1513;47.650;10.720;2022-11-15T01:38:57;4.60;;;3.20;;
3006;SDS011;1513;47.650;10.720;2022-11-15T01:41:42;4.80;;;3.40;;
3006;SDS011;1513;47.650;10.720;2022-11-15T01:47:22;4.27;;;3.23;;
3006;SDS011;1513;47.650;10.720;2022-11-15T01:50:10;4.20;;;3.23;;
3006;SDS011;1513;47.650;10.720;2022-11-15T01:52:58;4.70;;;3.50;;
3006;SDS011;1513;47.650;10.720;2022-11-15T01:55:43;4.07;;;3.00;;
3006;SDS011;1513;47.650;10.720;2022-11-15T01:58:28;4.60;;;3.13;;
3006;SDS011;1513;47.650;10.720;2022-11-15T02:01:13;3.50;;;2.90;;
3006;SDS011;1513;47.650;10.720;2022-11-15T02:03:59;2.57;;;2.30;;
3006;SDS011;1513;47.650;10.720;2022-11-15T02:06:46;3.27;;;1.73;;
3006;SDS011;1513;47.650;10.720;2022-11-15T02:09:32;1.60;;;1.50;;
3006;SDS011;1513;47.650;10.720;2022-11-15T02:12:19;1.93;;;1.40;;
3006;SDS011;1513;47.650;10.720;2022-11-15T02:15:05;1.63;;;1.43;;
3006;SDS011;1513;47.650;10.720;2022-11-15T02:18:04;1.90;;;1.70;;
3006;SDS011;1513;47.650;10.720;2022-11-15T02:30:23;3.73;;;1.70;;
3006;SDS011;1513;47.650;10.720;2022-11-15T02:33:17;3.23;;;1.63;;
3006;SDS011;1513;47.650;10.720;2022-11-15T02:45:27;2.20;;;1.40;;
3006;SDS011;1513;47.650;10.720;2022-11-15T02:48:15;1.90;;;1.53;;
3006;SDS011;1513;47.650;10.720;2022-11-15T02:51:00;4.50;;;1.73;;
3006;SDS011;1513;47.650;10.720;2022-11-15T02:53:45;2.03;;;1.60;;
3006;SDS011;1513;47.650;10.720;2022-11-15T02:56:30;1.67;;;1.57;;
3006;SDS011;1513;47.650;10.720;2022-11-15T03:05:38;1.73;;;1.63;;
3006;SDS011;1513;47.650;10.720;2022-11-15T03:08:41;1.80;;;1.47;;
3006;SDS011;1513;47.650;10.720;2022-11-15T03:11:29;1.90;;;1.80;;
3006;SDS011;1513;47.650;10.720;2022-11-15T03:14:29;1.90;;;1.67;;
3006;SDS011;1513;47.650;10.720;2022-11-15T03:17:38;1.80;;;1.57;;
3006;SDS011;1513;47.650;10.720;2022-11-15T03:20:45;1.50;;;1.40;;
3006;SDS011;1513;47.650;10.720;2022-11-15T03:23:31;2.30;;;1.70;;
3006;SDS011;1513;47.650;10.720;2022-11-15T03:26:17;2.40;;;2.20;;
3006;SDS011;1513;47.650;10.720;2022-11-15T03:29:08;2.53;;;2.30;;
3006;SDS011;1513;47.650;10.720;2022-11-15T03:32:20;3.60;;;2.07;;
3006;SDS011;1513;47.650;10.720;2022-11-15T03:35:09;4.47;;;2.37;;
3006;SDS011;1513;47.650;10.720;2022-11-15T03:41:05;3.00;;;2.50;;
3006;SDS011;1513;47.650;10.720;2022-11-15T03:43:55;5.50;;;2.37;;
3006;SDS011;1513;47.650;10.720;2022-11-15T03:46:46;3.43;;;2.40;;
3006;SDS011;1513;47.650;10.720;2022-11-15T03:49:49;3.50;;;2.23;;
3006;SDS011;1513;47.650;10.720;2022-11-15T03:52:36;5.10;;;2.87;;
3006;SDS011;1513;47.650;10.720;2022-11-15T03:55:22;3.17;;;2.80;;
3006;SDS011;1513;47.650;10.720;2022-11-15T03:58:07;7.47;;;3.40;;
3006;SDS011;1513;47.650;10.720;2022-11-15T04:00:51;3.40;;;2.90;;
3006;SDS011;1513;47.650;10.720;2022-11-15T04:03:36;2.60;;;2.30;;
3006;SDS011;1513;47.650;10.720;2022-11-15T04:06:21;5.53;;;2.47;;
3006;SDS011;1513;47.650;10.720;2022-11-15T04:09:06;4.00;;;2.77;;
3006;SDS011;1513;47.650;10.720;2022-11-15T04:11:51;6.43;;;3.13;;
3006;SDS011;1513;47.650;10.720;2022-11-15T04:14:36;5.13;;;3.40;;
3006;SDS011;1513;47.650;10.720;2022-11-15T04:17:44;13.03;;;3.63;;
3006;SDS011;1513;47.650;10.720;2022-11-15T04:20:31;5.30;;;3.40;;
3006;SDS011;1513;47.650;10.720;2022-11-15T04:23:35;5.57;;;2.70;;
3006;SDS011;1513;47.650;10.720;2022-11-15T04:26:49;4.60;;;3.07;;
3006;SDS011;1513;47.650;10.720;2022-11-15T04:29:34;2.50;;;2.30;;
3006;SDS011;1513;47.650;10.720;2022-11-15T04:32:18;3.40;;;2.37;;
3006;SDS011;1513;47.650;10.720;2022-11-15T04:35:03;3.13;;;2.13;;
3006;SDS011;1513;47.650;10.720;2022-11-15T04:37:49;2.10;;;1.90;;
3006;SDS011;1513;47.650;10.720;2022-11-15T04:40:34;4.03;;;2.00;;
3006;SDS011;1513;47.650;10.720;2022-11-15T04:43:19;1.60;;;1.50;;
3006;SDS011;1513;47.650;10.720;2022-11-15T04:46:04;2.83;;;1.80;;
3006;SDS011;1513;47.650;10.720;2022-11-15T04:48:50;1.87;;;1.47;;
3006;SDS011;1513;47.650;10.720;2022-11-15T04:51:35;1.80;;;1.67;;
3006;SDS011;1513;47.650;10.720;2022-11-15T04:54:20;2.43;;;1.70;;
3006;SDS011;1513;47.650;10.720;2022-11-15T04:57:05;2.70;;;2.00;;
3006;SDS011;1513;47.650;10.720;2022-11-15T04:59:50;2.10;;;1.90;;
3006;SDS011;1513;47.650;10.720;2022-11-15T05:02:35;2.23;;;1.90;;
3006;SDS011;1513;47.650;10.720;2022-11-15T05:05:39;3.07;;;1.93;;
3006;SDS011;1513;47.650;10.720;2022-11-15T05:08:24;1.70;;;1.60;;
3006;SDS011;1513;47.650;10.720;2022-11-15T05:11:08;3.27;;;1.60;;
3006;SDS011;1513;47.650;10.720;2022-11-15T05:13:53;1.60;;;1.47;;
3006;SDS011;1513;47.650;10.720;2022-11-15T05:16:38;2.43;;;1.57;;
3006;SDS011;1513;47.650;10.720;2022-11-15T05:19:23;1.50;;;1.40;;
3006;SDS011;1513;47.650;10.720;2022-11-15T05:22:08;2.00;;;1.80;;
3006;SDS011;1513;47.650;10.720;2022-11-15T05:24:53;6.20;;;2.50;;
3006;SDS011;1513;47.650;10.720;2022-11-15T05:27:38;4.40;;;2.87;;
3006;SDS011;1513;47.650;10.720;2022-11-15T05:30:23;20.53;;;7.20;;
3006;SDS011;1513;47.650;10.720;2022-11-15T05:33:08;23.33;;;8.77;;
3006;SDS011;1513;47.650;10.720;2022-11-15T05:35:57;22.80;;;8.07;;
3006;SDS011;1513;47.650;10.720;2022-11-15T05:38:46;9.57;;;4.57;;
3006;SDS011;1513;47.650;10.720;2022-11-15T05:41:43;8.07;;;4.23;;
3006;SDS011;1513;47.650;10.720;2022-11-15T05:44:33;3.50;;;2.67;;
3006;SDS011;1513;47.650;10.720;2022-11-15T05:47:22;8.80;;;3.63;;
3006;SDS011;1513;47.650;10.720;2022-11-15T05:50:11;9.07;;;4.77;;
3006;SDS011;1513;47.650;10.720;2022-11-15T05:52:57;8.77;;;4.87;;
3006;SDS011;1513;47.650;10.720;2022-11-15T05:55:41;18.40;;;5.33;;
3006;SDS011;1513;47.650;10.720;2022-11-15T05:58:26;10.33;;;5.67;;
3006;SDS011;1513;47.650;10.720;2022-11-15T06:01:13;11.10;;;6.10;;
3006;SDS011;1513;47.650;10.720;2022-11-15T06:03:58;8.60;;;4.93;;
3006;SDS011;1513;47.650;10.720;2022-11-15T06:06:43;12.30;;;5.40;;
3006;SDS011;1513;47.650;10.720;2022-11-15T06:09:28;9.90;;;5.50;;
3006;SDS011;1513;47.650;10.720;2022-11-15T06:12:13;10.40;;;6.33;;
3006;SDS011;1513;47.650;10.720;2022-11-15T06:14:58;12.30;;;6.50;;
3006;SDS011;1513;47.650;10.720;2022-11-15T06:17:43;14.53;;;6.47;;
3006;SDS011;1513;47.650;10.720;2022-11-15T06:20:28;11.70;;;6.67;;
3006;SDS011;1513;47.650;10.720;2022-11-15T06:23:13;13.63;;;7.57;;
3006;SDS011;1513;47.650;10.720;2022-11-15T06:25:58;14.70;;;7.43;;
3006;SDS011;1513;47.650;10.720;2022-11-15T06:28:43;11.60;;;6.13;;
3006;SDS011;1513;47.650;10.720;2022-11-15T06:31:28;14.63;;;7.40;;
3006;SDS011;1513;47.650;10.720;2022-11-15T06:34:13;14.40;;;6.33;;
3006;SDS011;1513;47.650;10.720;2022-11-15T06:36:58;20.00;;;6.70;;
3006;SDS011;1513;47.650;10.720;2022-11-15T06:39:43;16.47;;;6.80;;
3006;SDS011;1513;47.650;10.720;2022-11-15T06:42:28;9.33;;;5.90;;
3006;SDS011;1513;47.650;10.720;2022-11-15T06:45:13;12.27;;;5.93;;
3006;SDS011;1513;47.650;10.720;2022-11-15T06:47:58;13.47;;;6.30;;
3006;SDS011;1513;47.650;10.720;2022-11-15T06:50:43;14.00;;;6.80;;
3006;SDS011;1513;47.650;10.720;2022-11-15T06:53:35;13.40;;;7.27;;
3006;SDS011;1513;47.650;10.720;2022-11-15T06:56:21;13.07;;;7.67;;
3006;SDS011;1513;47.650;10.720;2022-11-15T06:59:06;16.13;;;7.97;;
3006;SDS011;1513;47.650;10.720;2022-11-15T07:01:51;21.47;;;10.27;;
3006;SDS011;1513;47.650;10.720;2022-11-15T07:04:36;24.53;;;11.13;;
3006;SDS011;1513;47.650;10.720;2022-11-15T07:07:20;26.63;;;14.23;;
3006;SDS011;1513;47.650;10.720;2022-11-15T07:10:06;32.47;;;16.20;;
3006;SDS011;1513;47.650;10.720;2022-11-15T07:12:51;30.63;;;15.00;;
3006;SDS011;1513;47.650;10.720;2022-11-15T07:15:36;22.30;;;10.60;;
3006;SDS011;1513;47.650;10.720;2022-11-15T07:18:21;15.30;;;8.60;;
3006;SDS011;1513;47.650;10.720;2022-11-15T07:21:07;19.13;;;9.90;;
3006;SDS011;1513;47.650;10.720;2022-11-15T07:23:53;23.53;;;11.27;;
3006;SDS011;1513;47.650;10.720;2022-11-15T07:26:39;21.73;;;10.53;;
3006;SDS011;1513;47.650;10.720;2022-11-15T07:29:24;12.93;;;7.83;;
3006;SDS011;1513;47.650;10.720;2022-11-15T07:32:09;9.70;;;5.60;;
3006;SDS011;1513;47.650;10.720;2022-11-15T07:34:56;9.43;;;4.93;;
3006;SDS011;1513;47.650;10.720;2022-11-15T07:37:41;9.03;;;3.63;;
3006;SDS011;1513;47.650;10.720;2022-11-15T07:40:27;3.47;;;2.67;;
3006;SDS011;1513;47.650;10.720;2022-11-15T07:43:13;12.97;;;3.90;;
3006;SDS011;1513;47.650;10.720;2022-11-15T07:45:58;3.93;;;3.40;;
3006;SDS011;1513;47.650;10.720;2022-11-15T07:48:43;4.67;;;3.30;;
3006;SDS011;1513;47.650;10.720;2022-11-15T07:51:28;2.67;;;2.43;;
3006;SDS011;1513;47.650;10.720;2022-11-15T07:54:13;3.53;;;2.57;;
3006;SDS011;1513;47.650;10.720;2022-11-15T07:56:58;5.97;;;3.47;;
3006;SDS011;1513;47.650;10.720;2022-11-15T07:59:43;4.33;;;3.50;;
3006;SDS011;1513;47.650;10.720;2022-11-15T08:02:28;5.83;;;3.80;;
3006;SDS011;1513;47.650;10.720;2022-11-15T08:05:13;7.00;;;4.40;;
3006;SDS011;1513;47.650;10.720;2022-11-15T08:07:59;6.23;;;4.03;;
3006;SDS011;1513;47.650;10.720;2022-11-15T08:10:44;4.30;;;3.17;;
3006;SDS011;1513;47.650;10.720;2022-11-15T08:13:29;5.10;;;2.90;;
3006;SDS011;1513;47.650;10.720;2022-11-15T08:16:14;4.07;;;3.10;;
3006;SDS011;1513;47.650;10.720;2022-11-15T08:18:59;5.70;;;3.10;;
3006;SDS011;1513;47.650;10.720;2022-11-15T08:21:44;3.83;;;2.53;;
3006;SDS011;1513;47.650;10.720;2022-11-15T08:24:29;3.13;;;2.77;;
3006;SDS011;1513;47.650;10.720;2022-11-15T08:27:13;3.67;;;2.70;;
3006;SDS011;1513;47.650;10.720;2022-11-15T08:29:59;4.30;;;2.87;;
3006;SDS011;1513;47.650;10.720;2022-11-15T08:32:45;6.77;;;2.80;;
3006;SDS011;1513;47.650;10.720;2022-11-15T08:35:30;6.67;;;3.60;;
3006;SDS011;1513;47.650;10.720;2022-11-15T08:38:15;13.80;;;6.30;;
3006;SDS011;1513;47.650;10.720;2022-11-15T08:41:01;7.33;;;4.83;;
3006;SDS011;1513;47.650;10.720;2022-11-15T08:43:48;9.40;;;4.70;;
3006;SDS011;1513;47.650;10.720;2022-11-15T08:46:32;6.67;;;4.80;;
3006;SDS011;1513;47.650;10.720;2022-11-15T08:49:17;7.70;;;3.70;;
3006;SDS011;1513;47.650;10.720;2022-11-15T08:52:02;7.70;;;3.77;;
3006;SDS011;1513;47.650;10.720;2022-11-15T08:54:47;4.23;;;3.03;;
3006;SDS011;1513;47.650;10.720;2022-11-15T08:57:32;6.43;;;3.70;;
3006;SDS011;1513;47.650;10.720;2022-11-15T09:00:16;6.77;;;4.20;;
3006;SDS011;1513;47.650;10.720;2022-11-15T09:03:04;8.13;;;5.53;;
3006;SDS011;1513;47.650;10.720;2022-11-15T09:05:53;8.03;;;5.17;;
3006;SDS011;1513;47.650;10.720;2022-11-15T09:08:42;11.00;;;3.60;;
3006;SDS011;1513;47.650;10.720;2022-11-15T09:11:27;4.00;;;3.10;;
3006;SDS011;1513;47.650;10.720;2022-11-15T09:14:12;8.20;;;3.80;;
3006;SDS011;1513;47.650;10.720;2022-11-15T09:16:57;5.10;;;4.00;;
3006;SDS011;1513;47.650;10.720;2022-11-15T09:19:42;6.13;;;3.90;;
3006;SDS011;1513;47.650;10.720;2022-11-15T09:22:27;9.40;;;4.17;;
3006;SDS011;1513;47.650;10.720;2022-11-15T09:25:12;6.90;;;4.07;;
3006;SDS011;1513;47.650;10.720;2022-11-15T09:27:57;16.77;;;8.70;;
3006;SDS011;1513;47.650;10.720;2022-11-15T09:30:42;9.53;;;4.47;;
3006;SDS011;1513;47.650;10.720;2022-11-15T09:33:27;4.77;;;3.30;;
3006;SDS011;1513;47.650;10.720;2022-11-15T09:36:12;4.57;;;2.73;;
3006;SDS011;1513;47.650;10.720;2022-11-15T09:38:57;8.00;;;3.97;;
3006;SDS011;1513;47.650;10.720;2022-11-15T09:48:12;6.60;;;4.00;;
3006;SDS011;1513;47.650;10.720;2022-11-15T09:51:08;6.77;;;3.70;;
3006;SDS011;1513;47.650;10.720;2022-11-15T09:53:41;6.73;;;4.37;;
3006;SDS011;1513;47.650;10.720;2022-11-15T09:56:19;6.47;;;3.50;;
3006;SDS011;1513;47.650;10.720;2022-11-15T10:04:20;4.00;;;2.03;;
3006;SDS011;1513;47.650;10.720;2022-11-15T10:06:56;2.93;;;2.63;;
3006;SDS011;1513;47.650;10.720;2022-11-15T10:09:51;3.37;;;2.27;;
3006;SDS011;1513;47.650;10.720;2022-11-15T10:12:17;2.07;;;1.97;;
3006;SDS011;1513;47.650;10.720;2022-11-15T10:14:43;2.40;;;2.20;;
3006;SDS011;1513;47.650;10.720;2022-11-15T10:20:21;4.07;;;2.60;;
3006;SDS011;1513;47.650;10.720;2022-11-15T10:23:01;2.70;;;2.30;;
3006;SDS011;1513;47.650;10.720;2022-11-15T10:25:32;3.80;;;2.90;;
3006;SDS011;1513;47.650;10.720;2022-11-15T10:30:38;2.83;;;2.50;;
3006;SDS011;1513;47.650;10.720;2022-11-15T10:33:31;8.90;;;2.80;;
3006;SDS011;1513;47.650;10.720;2022-11-15T10:46:50;8.47;;;3.73;;
3006;SDS011;1513;47.650;10.720;2022-11-15T10:49:32;4.90;;;2.83;;
3006;SDS011;1513;47.650;10.720;2022-11-15T10:52:03;3.40;;;2.43;;
3006;SDS011;1513;47.650;10.720;2022-11-15T10:54:37;3.77;;;2.33;;
3006;SDS011;1513;47.650;10.720;2022-11-15T10:57:18;4.77;;;2.73;;
3006;SDS011;1513;47.650;10.720;2022-11-15T10:59:50;2.13;;;1.80;;
3006;SDS011;1513;47.650;10.720;2022-11-15T11:02:37;2.30;;;2.10;;
3006;SDS011;1513;47.650;10.720;2022-11-15T11:05:26;5.90;;;3.00;;
3006;SDS011;1513;47.650;10.720;2022-11-15T11:08:04;4.53;;;2.10;;
3006;SDS011;1513;47.650;10.720;2022-11-15T11:10:34;4.70;;;2.27;;
3006;SDS011;1513;47.650;10.720;2022-11-15T11:15:56;3.73;;;2.07;;
3006;SDS011;1513;47.650;10.720;2022-11-15T11:18:36;2.20;;;1.77;;
3006;SDS011;1513;47.650;10.720;2022-11-15T11:21:09;2.23;;;1.87;;
3006;SDS011;1513;47.650;10.720;2022-11-15T11:29:16;1.80;;;1.70;;
3006;SDS011;1513;47.650;10.720;2022-11-15T11:34:36;1.83;;;1.67;;
3006;SDS011;1513;47.650;10.720;2022-11-15T11:40:30;4.20;;;2.50;;
3006;SDS011;1513;47.650;10.720;2022-11-15T11:43:26;3.23;;;1.50;;
3006;SDS011;1513;47.650;10.720;2022-11-15T11:46:21;4.30;;;1.40;;
3006;SDS011;1513;47.650;10.720;2022-11-15T11:49:09;3.10;;;2.00;;
3006;SDS011;1513;47.650;10.720;2022-11-15T11:51:42;2.57;;;1.87;;
3006;SDS011;1513;47.650;10.720;2022-11-15T11:57:12;2.40;;;1.90;;
3006;SDS011;1513;47.650;10.720;2022-11-15T12:02:17;1.90;;;1.80;;
3006;SDS011;1513;47.650;10.720;2022-11-15T12:04:57;2.60;;;1.77;;
3006;SDS011;1513;47.650;10.720;2022-11-15T12:07:31;1.77;;;1.67;;
3006;SDS011;1513;47.650;10.720;2022-11-15T12:12:55;2.10;;;1.33;;
3006;SDS011;1513;47.650;10.720;2022-11-15T12:15:33;3.90;;;1.57;;
3006;SDS011;1513;47.650;10.720;2022-11-15T12:18:07;2.23;;;1.60;;
3006;SDS011;1513;47.650;10.720;2022-11-15T12:20:37;1.97;;;1.60;;
3006;SDS011;1513;47.650;10.720;2022-11-15T12:23:13;3.60;;;1.60;;
3006;SDS011;1513;47.650;10.720;2022-11-15T12:28:33;2.00;;;1.43;;
3006;SDS011;1513;47.650;10.720;2022-11-15T12:31:15;4.00;;;2.00;;
3006;SDS011;1513;47.650;10.720;2022-11-15T12:33:50;2.90;;;2.00;;
3006;SDS011;1513;47.650;10.720;2022-11-15T12:41:18;1.80;;;1.70;;
3006;SDS011;1513;47.650;10.720;2022-11-15T12:43:46;2.20;;;2.00;;
3006;SDS011;1513;47.650;10.720;2022-11-15T12:46:20;2.40;;;2.20;;
3006;SDS011;1513;47.650;10.720;2022-11-15T12:48:57;3.87;;;2.10;;
3006;SDS011;1513;47.650;10.720;2022-11-15T13:02:22;7.20;;;2.33;;
3006;SDS011;1513;47.650;10.720;2022-11-15T13:04:51;6.03;;;2.87;;
3006;SDS011;1513;47.650;10.720;2022-11-15T13:10:01;2.60;;;2.40;;
3006;SDS011;1513;47.650;10.720;2022-11-15T13:23:01;4.17;;;2.60;;
3006;SDS011;1513;47.650;10.720;2022-11-15T13:28:17;2.67;;;2.20;;
3006;SDS011;1513;47.650;10.720;2022-11-15T13:30:56;6.43;;;2.17;;
3006;SDS011;1513;47.650;10.720;2022-11-15T13:33:39;4.00;;;2.33;;
3006;SDS011;1513;47.650;10.720;2022-11-15T13:36:13;15.67;;;3.40;;
3006;SDS011;1513;47.650;10.720;2022-11-15T13:38:40;8.37;;;2.63;;
3006;SDS011;1513;47.650;10.720;2022-11-15T13:41:11;8.10;;;3.37;;
3006;SDS011;1513;47.650;10.720;2022-11-15T13:43:50;12.10;;;3.40;;
3006;SDS011;1513;47.650;10.720;2022-11-15T13:48:55;10.20;;;2.93;;
3006;SDS011;1513;47.650;10.720;2022-11-15T13:51:36;15.63;;;3.53;;
3006;SDS011;1513;47.650;10.720;2022-11-15T13:54:19;7.40;;;3.07;;
3006;SDS011;1513;47.650;10.720;2022-11-15T13:56:55;4.17;;;3.07;;
3006;SDS011;1513;47.650;10.720;2022-11-15T13:59:29;3.30;;;3.00;;
3006;SDS011;1513;47.650;10.720;2022-11-15T14:02:10;2.93;;;2.30;;
3006;SDS011;1513;47.650;10.720;2022-11-15T14:04:38;5.47;;;3.20;;
3006;SDS011;1513;47.650;10.720;2022-11-15T14:07:34;4.03;;;2.60;;
3006;SDS011;1513;47.650;10.720;2022-11-15T14:10:16;10.63;;;3.13;;
3006;SDS011;1513;47.650;10.720;2022-11-15T14:12:53;4.97;;;3.23;;
3006;SDS011;1513;47.650;10.720;2022-11-15T14:18:02;3.80;;;3.40;;
3006;SDS011;1513;47.650;10.720;2022-11-15T14:23:03;6.33;;;3.40;;
3006;SDS011;1513;47.650;10.720;2022-11-15T14:25:51;7.33;;;3.23;;
3006;SDS011;1513;47.650;10.720;2022-11-15T14:28:28;7.07;;;4.00;;
3006;SDS011;1513;47.650;10.720;2022-11-15T14:30:59;5.57;;;3.90;;
3006;SDS011;1513;47.650;10.720;2022-11-15T14:33:38;8.50;;;3.73;;
3006;SDS011;1513;47.650;10.720;2022-11-15T14:36:25;8.43;;;3.70;;
3006;SDS011;1513;47.650;10.720;2022-11-15T14:38:51;5.47;;;3.60;;
3006;SDS011;1513;47.650;10.720;2022-11-15T14:41:20;6.17;;;3.60;;
3006;SDS011;1513;47.650;10.720;2022-11-15T14:43:48;6.37;;;3.80;;
3006;SDS011;1513;47.650;10.720;2022-11-15T14:46:15;5.77;;;3.37;;
3006;SDS011;1513;47.650;10.720;2022-11-15T14:48:42;4.53;;;3.63;;
3006;SDS011;1513;47.650;10.720;2022-11-15T14:51:12;4.50;;;3.50;;
3006;SDS011;1513;47.650;10.720;2022-11-15T14:53:40;4.30;;;3.33;;
3006;SDS011;1513;47.650;10.720;2022-11-15T14:56:07;6.77;;;3.70;;
3006;SDS011;1513;47.650;10.720;2022-11-15T14:58:33;6.90;;;3.50;;
3006;SDS011;1513;47.650;10.720;2022-11-15T15:01:01;5.00;;;3.30;;
3006;SDS011;1513;47.650;10.720;2022-11-15T15:03:36;7.83;;;3.70;;
3006;SDS011;1513;47.650;10.720;2022-11-15T15:06:02;10.00;;;4.30;;
3006;SDS011;1513;47.650;10.720;2022-11-15T15:08:28;5.90;;;3.70;;
3006;SDS011;1513;47.650;10.720;2022-11-15T15:10:55;9.27;;;4.50;;
3006;SDS011;1513;47.650;10.720;2022-11-15T15:13:22;6.53;;;4.00;;
3006;SDS011;1513;47.650;10.720;2022-11-15T15:15:49;13.97;;;7.10;;
3006;SDS011;1513;47.650;10.720;2022-11-15T15:18:17;10.57;;;6.07;;
3006;SDS011;1513;47.650;10.720;2022-11-15T15:20:44;7.00;;;5.37;;
3006;SDS011;1513;47.650;10.720;2022-11-15T15:23:16;12.30;;;6.90;;
3006;SDS011;1513;47.650;10.720;2022-11-15T15:25:44;9.00;;;5.10;;
3006;SDS011;1513;47.650;10.720;2022-11-15T15:28:11;12.37;;;7.20;;
3006;SDS011;1513;47.650;10.720;2022-11-15T15:30:38;10.63;;;5.10;;
3006;SDS011;1513;47.650;10.720;2022-11-15T15:33:04;8.10;;;5.30;;
3006;SDS011;1513;47.650;10.720;2022-11-15T15:35:32;9.77;;;5.13;;
3006;SDS011;1513;47.650;10.720;2022-11-15T15:38:00;7.30;;;3.93;;
3006;SDS011;1513;47.650;10.720;2022-11-15T15:40:27;6.70;;;3.90;;
3006;SDS011;1513;47.650;10.720;2022-11-15T15:42:55;5.93;;;3.77;;
3006;SDS011;1513;47.650;10.720;2022-11-15T15:45:21;6.90;;;4.20;;
3006;SDS011;1513;47.650;10.720;2022-11-15T15:47:48;11.73;;;5.93;;
3006;SDS011;1513;47.650;10.720;2022-11-15T15:52:51;7.57;;;4.90;;
3006;SDS011;1513;47.650;10.720;2022-11-15T15:55:18;11.03;;;6.13;;
3006;SDS011;1513;47.650;10.720;2022-11-15T15:57:45;6.97;;;5.20;;
3006;SDS011;1513;47.650;10.720;2022-11-15T16:00:12;13.83;;;4.70;;
3006;SDS011;1513;47.650;10.720;2022-11-15T16:02:39;11.03;;;4.20;;
3006;SDS011;1513;47.650;10.720;2022-11-15T16:05:05;8.63;;;4.10;;
3006;SDS011;1513;47.650;10.720;2022-11-15T16:07:32;4.57;;;3.77;;
3006;SDS011;1513;47.650;10.720;2022-11-15T16:09:59;4.07;;;3.37;;
3006;SDS011;1513;47.650;10.720;2022-11-15T16:12:32;5.20;;;3.70;;
3006;SDS011;1513;47.650;10.720;2022-11-15T16:14:59;5.00;;;3.33;;
3006;SDS011;1513;47.650;10.720;2022-11-15T16:17:26;7.13;;;3.30;;
3006;SDS011;1513;47.650;10.720;2022-11-15T16:20:00;8.17;;;3.07;;
3006;SDS011;1513;47.650;10.720;2022-11-15T16:22:27;6.17;;;4.03;;
3006;SDS011;1513;47.650;10.720;2022-11-15T16:24:54;4.33;;;3.30;;
3006;SDS011;1513;47.650;10.720;2022-11-15T16:27:21;5.97;;;3.40;;
3006;SDS011;1513;47.650;10.720;2022-11-15T16:29:47;5.20;;;4.10;;
3006;SDS011;1513;47.650;10.720;2022-11-15T16:32:14;9.53;;;5.07;;
3006;SDS011;1513;47.650;10.720;2022-11-15T16:34:41;5.50;;;3.90;;
3006;SDS011;1513;47.650;10.720;2022-11-15T16:37:15;8.50;;;6.10;;
3006;SDS011;1513;47.650;10.720;2022-11-15T16:39:46;10.03;;;6.80;;
3006;SDS011;1513;47.650;10.720;2022-11-15T16:42:13;12.87;;;8.07;;
3006;SDS011;1513;47.650;10.720;2022-11-15T16:44:39;10.70;;;6.87;;
3006;SDS011;1513;47.650;10.720;2022-11-15T16:47:09;11.40;;;7.30;;
3006;SDS011;1513;47.650;10.720;2022-11-15T16:49:41;15.30;;;9.10;;
3006;SDS011;1513;47.650;10.720;2022-11-15T16:52:09;15.13;;;9.20;;
3006;SDS011;1513;47.650;10.720;2022-11-15T16:54:35;18.60;;;11.10;;
3006;SDS011;1513;47.650;10.720;2022-11-15T16:57:02;13.30;;;9.80;;
3006;SDS011;1513;47.650;10.720;2022-11-15T16:59:28;15.90;;;9.60;;
3006;SDS011;1513;47.650;10.720;2022-11-15T17:01:56;11.53;;;6.60;;
3006;SDS011;1513;47.650;10.720;2022-11-15T17:04:23;7.53;;;5.50;;
3006;SDS011;1513;47.650;10.720;2022-11-15T17:06:51;7.33;;;5.33;;
3006;SDS011;1513;47.650;10.720;2022-11-15T17:09:18;9.93;;;4.13;;
3006;SDS011;1513;47.650;10.720;2022-11-15T17:11:48;12.10;;;5.37;;
3006;SDS011;1513;47.650;10.720;2022-11-15T17:14:15;6.50;;;4.20;;
3006;SDS011;1513;47.650;10.720;2022-11-15T17:16:42;7.33;;;5.60;;
3006;SDS011;1513;47.650;10.720;2022-11-15T17:19:12;17.50;;;6.10;;
3006;SDS011;1513;47.650;10.720;2022-11-15T17:21:39;13.17;;;8.60;;
3006;SDS011;1513;47.650;10.720;2022-11-15T17:24:07;11.60;;;5.97;;
3006;SDS011;1513;47.650;10.720;2022-11-15T17:26:33;27.33;;;6.47;;
3006;SDS011;1513;47.650;10.720;2022-11-15T17:29:00;18.03;;;9.40;;
3006;SDS011;1513;47.650;10.720;2022-11-15T17:31:28;26.00;;;15.80;;
3006;SDS011;1513;47.650;10.720;2022-11-15T17:33:57;20.40;;;12.60;;
3006;SDS011;1513;47.650;10.720;2022-11-15T17:36:24;21.27;;;11.13;;
3006;SDS011;1513;47.650;10.720;2022-11-15T17:38:51;19.00;;;11.07;;
3006;SDS011;1513;47.650;10.720;2022-11-15T17:41:17;16.27;;;9.77;;
3006;SDS011;1513;47.650;10.720;2022-11-15T17:43:45;21.40;;;14.00;;
3006;SDS011;1513;47.650;10.720;2022-11-15T17:46:14;17.97;;;10.07;;
3006;SDS011;1513;47.650;10.720;2022-11-15T17:48:42;19.87;;;11.63;;
3006;SDS011;1513;47.650;10.720;2022-11-15T17:51:10;16.10;;;10.43;;
3006;SDS011;1513;47.650;10.720;2022-11-15T17:53:41;11.20;;;6.90;;
3006;SDS011;1513;47.650;10.720;2022-11-15T17:56:09;39.77;;;19.67;;
3006;SDS011;1513;47.650;10.720;2022-11-15T17:58:37;26.37;;;14.73;;
3006;SDS011;1513;47.650;10.720;2022-11-15T18:03:55;26.87;;;16.77;;
3006;SDS011;1513;47.650;10.720;2022-11-15T18:06:25;21.40;;;14.50;;
3006;SDS011;1513;47.650;10.720;2022-11-15T18:08:55;21.23;;;13.63;;
3006;SDS011;1513;47.650;10.720;2022-11-15T18:11:23;26.03;;;13.90;;
3006;SDS011;1513;47.650;10.720;2022-11-15T18:14:00;22.40;;;13.93;;
3006;SDS011;1513;47.650;10.720;2022-11-15T18:16:28;15.90;;;10.30;;
3006;SDS011;1513;47.650;10.720;2022-11-15T18:18:56;15.27;;;10.47;;
3006;SDS011;1513;47.650;10.720;2022-11-15T18:21:29;17.83;;;11.23;;
3006;SDS011;1513;47.650;10.720;2022-11-15T18:23:58;13.97;;;9.27;;
3006;SDS011;1513;47.650;10.720;2022-11-15T18:26:26;13.23;;;8.30;;